createdAt,value
2023-07-14T00:01:47.161Z,5.53
2023-07-14T00:05:49.496Z,2.55
2023-07-14T00:09:51.308Z,2.05
2023-07-14T00:13:54.951Z,2.10
2023-07-14T00:18:02.404Z,3.03
2023-07-14T00:22:13.502Z,1.90
2023-07-14T00:26:17.875Z,2.70
2023-07-14T00:30:23.003Z,2.65
2023-07-14T00:34:25.970Z,2.30
2023-07-14T00:38:28.355Z,2.10
2023-07-14T00:42:30.259Z,1.92
2023-07-14T00:46:34.736Z,2.22
2023-07-14T00:51:01.802Z,2.05
2023-07-14T00:55:28.498Z,2.95
2023-07-14T00:59:35.126Z,2.63
2023-07-14T01:03:44.637Z,2.80
2023-07-14T01:07:47.915Z,2.40
2023-07-14T01:11:55.794Z,3.35
2023-07-14T01:15:58.242Z,2.33
2023-07-14T01:20:02.271Z,4.03
2023-07-14T01:24:20.604Z,3.25
2023-07-14T01:28:22.846Z,3.30
2023-07-14T01:32:32.796Z,1.90
2023-07-14T01:36:35.778Z,2.67
2023-07-14T01:40:38.301Z,3.05
2023-07-14T01:44:42.863Z,2.67
2023-07-14T01:48:59.808Z,2.38
2023-07-14T01:53:07.835Z,2.47
2023-07-14T01:57:14.709Z,2.50
2023-07-14T02:01:17.613Z,4.32
2023-07-14T02:05:34.783Z,3.90
2023-07-14T02:09:37.392Z,4.90
2023-07-14T02:13:39.724Z,2.45
2023-07-14T02:17:41.883Z,2.72
2023-07-14T02:21:44.108Z,4.60
2023-07-14T02:25:48.434Z,3.10
2023-07-14T02:29:51.044Z,5.40
2023-07-14T02:33:54.339Z,3.15
2023-07-14T02:38:07.211Z,3.08
2023-07-14T02:42:09.068Z,3.42
2023-07-14T02:46:24.779Z,5.32
2023-07-14T02:50:26.795Z,2.50
2023-07-14T02:54:28.729Z,2.30
2023-07-14T02:58:32.759Z,3.63
2023-07-14T03:02:36.118Z,3.63
2023-07-14T03:06:38.864Z,3.63
2023-07-14T03:10:40.909Z,2.80
2023-07-14T03:14:43.297Z,3.45
2023-07-14T03:18:45.504Z,3.47
2023-07-14T03:22:48.747Z,3.20
2023-07-14T03:26:51.865Z,3.38
2023-07-14T03:30:53.901Z,4.43
2023-07-14T03:34:56.679Z,2.58
2023-07-14T03:39:26.414Z,2.63
2023-07-14T03:43:28.700Z,4.05
2023-07-14T03:47:31.679Z,2.85
2023-07-14T03:51:34.422Z,4.60
2023-07-14T03:55:37.237Z,4.93
2023-07-14T03:59:39.862Z,3.10
2023-07-14T04:03:43.855Z,4.22
2023-07-14T04:07:46.907Z,3.42
2023-07-14T04:11:49.714Z,5.10
2023-07-14T04:15:53.685Z,4.72
2023-07-14T04:19:57.637Z,6.43
2023-07-14T04:24:00.948Z,2.85
2023-07-14T04:28:04.357Z,3.38
2023-07-14T04:32:08.626Z,3.30
2023-07-14T04:36:14.766Z,3.97
2023-07-14T04:40:35.182Z,4.85
2023-07-14T04:44:40.370Z,2.90
2023-07-14T04:48:42.396Z,3.97
2023-07-14T04:52:45.426Z,4.97
2023-07-14T04:56:47.512Z,3.45
2023-07-14T05:00:50.742Z,6.25
2023-07-14T05:05:30.358Z,2.78
2023-07-14T05:09:35.722Z,5.47
2023-07-14T05:13:38.118Z,4.13
2023-07-14T05:17:42.983Z,3.83
2023-07-14T05:21:45.354Z,3.83
2023-07-14T05:25:47.288Z,4.45
2023-07-14T05:29:51.004Z,5.07
2023-07-14T05:33:53.753Z,4.03
2023-07-14T05:37:57.877Z,6.60
2023-07-14T05:42:00.044Z,6.55
2023-07-14T05:46:02.422Z,4.07
2023-07-14T05:50:06.744Z,4.55
2023-07-14T05:54:08.876Z,4.60
2023-07-14T05:58:11.646Z,4.65
2023-07-14T06:02:15.651Z,4.68
2023-07-14T06:06:18.380Z,4.45
2023-07-14T06:10:20.719Z,4.63
2023-07-14T06:14:24.990Z,3.80
2023-07-14T06:18:27.634Z,4.05
2023-07-14T06:22:31.789Z,4.18
2023-07-14T06:26:34.745Z,5.00
2023-07-14T06:30:37.788Z,6.10
2023-07-14T06:34:41.153Z,4.45
2023-07-14T06:38:43.845Z,4.68
2023-07-14T06:42:45.815Z,7.28
2023-07-14T06:46:48.097Z,4.78
2023-07-14T06:50:51.047Z,3.97
2023-07-14T06:54:54.514Z,4.40
2023-07-14T06:58:57.540Z,5.22
2023-07-14T07:02:59.745Z,3.38
2023-07-14T07:07:02.185Z,4.15
2023-07-14T07:11:04.142Z,4.43
2023-07-14T07:15:06.861Z,4.07
2023-07-14T07:19:09.159Z,4.90
2023-07-14T07:23:11.605Z,2.53
2023-07-14T07:27:14.321Z,2.88
2023-07-14T07:31:16.330Z,2.40
2023-07-14T07:35:18.545Z,5.40
2023-07-14T07:39:20.529Z,2.92
2023-07-14T07:43:23.645Z,2.60
2023-07-14T07:47:26.003Z,3.53
2023-07-14T07:51:28.644Z,1.77
2023-07-14T07:55:30.723Z,2.00
2023-07-14T07:59:32.820Z,2.05
2023-07-14T08:03:35.917Z,2.38
2023-07-14T08:07:38.104Z,2.45
2023-07-14T08:11:40.255Z,3.70
2023-07-14T08:15:42.547Z,2.97
2023-07-14T08:19:46.296Z,2.05
2023-07-14T08:23:48.239Z,3.03
2023-07-14T08:27:50.974Z,5.38
2023-07-14T08:31:52.810Z,1.63
2023-07-14T08:35:56.538Z,1.80
2023-07-14T08:39:58.743Z,2.28
2023-07-14T08:44:11.121Z,1.95
2023-07-14T08:48:41.424Z,2.00
2023-07-14T08:52:45.200Z,1.80
2023-07-14T08:56:47.665Z,2.15
2023-07-14T09:00:54.196Z,1.95
2023-07-14T09:05:09.683Z,2.20
2023-07-14T09:09:17.290Z,2.03
2023-07-14T09:13:47.567Z,1.90
2023-07-14T09:18:24.209Z,2.08
2023-07-14T09:22:47.182Z,2.38
2023-07-14T09:26:59.047Z,2.10
2023-07-14T09:31:06.670Z,3.10
2023-07-14T09:35:10.612Z,2.20
2023-07-14T09:39:21.924Z,1.45
2023-07-14T09:43:24.114Z,2.90
2023-07-14T09:47:27.910Z,1.60
2023-07-14T09:51:31.989Z,2.05
2023-07-14T09:55:57.277Z,2.53
2023-07-14T10:00:12.534Z,4.38
2023-07-14T10:04:18.197Z,1.88
2023-07-14T10:08:25.159Z,1.35
2023-07-14T10:12:35.746Z,3.67
2023-07-14T10:16:43.361Z,1.95
2023-07-14T10:21:12.872Z,1.70
2023-07-14T10:25:18.677Z,1.50
2023-07-14T10:29:23.229Z,2.28
2023-07-14T10:33:31.267Z,1.90
2023-07-14T10:37:39.616Z,1.20
2023-07-14T10:41:47.311Z,1.27
2023-07-14T10:45:59.371Z,1.20
2023-07-14T10:50:21.384Z,0.90
2023-07-14T10:54:51.144Z,1.70
2023-07-14T10:59:03.404Z,1.00
2023-07-14T11:03:24.631Z,1.67
2023-07-14T11:07:30.519Z,0.90
2023-07-14T11:11:49.897Z,2.05
2023-07-14T11:16:02.685Z,1.38
2023-07-14T11:20:21.192Z,1.20
2023-07-14T11:24:35.221Z,1.50
2023-07-14T11:28:46.901Z,0.90
2023-07-14T11:33:11.651Z,1.95
2023-07-14T11:37:35.778Z,1.73
2023-07-14T11:41:38.690Z,1.20
2023-07-14T11:45:42.830Z,0.93
2023-07-14T11:49:45.927Z,1.95
2023-07-14T11:54:19.088Z,0.90
2023-07-14T11:58:28.360Z,1.40
2023-07-14T12:02:36.577Z,1.00
2023-07-14T12:06:50.227Z,0.90
2023-07-14T12:10:52.953Z,1.02
2023-07-14T12:14:55.429Z,0.90
2023-07-14T12:19:21.409Z,1.00
2023-07-14T12:23:29.744Z,1.10
2023-07-14T12:27:46.603Z,1.40
2023-07-14T12:31:53.213Z,1.70
2023-07-14T12:35:55.113Z,1.13
2023-07-14T12:39:57.645Z,1.40
2023-07-14T12:44:02.271Z,1.10
2023-07-14T12:48:05.226Z,0.90
2023-07-14T12:52:29.600Z,1.90
2023-07-14T12:56:34.278Z,0.90
2023-07-14T13:00:38.482Z,1.80
2023-07-14T13:04:41.172Z,1.35
2023-07-14T13:08:47.057Z,2.65
2023-07-14T13:12:53.446Z,1.25
2023-07-14T13:16:56.092Z,1.67
2023-07-14T13:20:59.948Z,1.42
2023-07-14T13:25:07.713Z,1.10
2023-07-14T13:29:15.711Z,1.95
2023-07-14T13:33:26.834Z,1.23
2023-07-14T13:37:29.186Z,1.20
2023-07-14T13:41:31.298Z,1.23
2023-07-14T13:45:39.193Z,1.40
2023-07-14T13:49:41.233Z,1.20
2023-07-14T13:53:43.418Z,1.10
2023-07-14T13:57:50.447Z,1.25
2023-07-14T14:01:52.891Z,1.20
2023-07-14T14:05:54.983Z,1.20
2023-07-14T14:09:57.411Z,0.98
2023-07-14T14:13:59.737Z,1.38
2023-07-14T14:18:06.247Z,0.98
2023-07-14T14:22:10.944Z,0.82
2023-07-14T14:26:14.401Z,2.22
2023-07-14T14:30:18.425Z,1.17
2023-07-14T14:34:20.232Z,1.88
2023-07-14T14:38:42.550Z,1.95
2023-07-14T14:42:47.986Z,1.55
2023-07-14T14:46:50.360Z,1.30
2023-07-14T14:50:53.997Z,1.20
2023-07-14T14:54:56.157Z,1.63
2023-07-14T14:59:23.741Z,1.45
2023-07-14T15:03:26.253Z,1.17
2023-07-14T15:07:28.166Z,1.08
2023-07-14T15:11:30.694Z,0.95
2023-07-14T15:15:37.445Z,1.40
2023-07-14T15:19:40.477Z,1.67
2023-07-14T15:23:42.449Z,1.45
2023-07-14T15:27:47.173Z,1.40
2023-07-14T15:31:49.720Z,1.38
2023-07-14T15:35:57.725Z,3.47
2023-07-14T15:40:00.837Z,1.20
2023-07-14T15:44:10.310Z,1.20
2023-07-14T15:48:19.471Z,1.35
2023-07-14T15:52:26.485Z,1.63
2023-07-14T15:56:28.804Z,3.63
2023-07-14T16:00:30.684Z,1.70
2023-07-14T16:04:32.542Z,2.25
2023-07-14T16:08:36.302Z,1.75
2023-07-14T16:12:39.192Z,1.85
2023-07-14T16:16:42.898Z,1.77
2023-07-14T16:20:46.746Z,1.85
2023-07-14T16:24:48.893Z,1.52
2023-07-14T16:28:51.012Z,1.77
2023-07-14T16:32:53.424Z,1.42
2023-07-14T16:36:55.807Z,2.47
2023-07-14T16:40:58.112Z,1.70
2023-07-14T16:45:00.506Z,1.80
2023-07-14T16:49:02.419Z,1.55
2023-07-14T16:53:04.369Z,1.70
2023-07-14T16:57:26.092Z,1.45
2023-07-14T17:01:28.806Z,2.40
2023-07-14T17:05:33.987Z,1.27
2023-07-14T17:09:35.931Z,2.53
2023-07-14T17:13:43.538Z,1.00
2023-07-14T17:17:46.688Z,0.93
2023-07-14T17:21:59.963Z,1.30
2023-07-14T17:26:02.761Z,1.25
2023-07-14T17:30:26.327Z,3.63
2023-07-14T17:34:28.278Z,1.20
2023-07-14T17:38:32.904Z,2.50
2023-07-14T17:42:35.137Z,1.38
2023-07-14T17:46:37.410Z,2.78
2023-07-14T17:50:44.076Z,3.17
2023-07-14T17:54:47.913Z,2.17
2023-07-14T17:58:50.232Z,1.40
2023-07-14T18:03:00.269Z,1.88
2023-07-14T18:07:02.524Z,1.40
2023-07-14T18:11:21.348Z,1.20
2023-07-14T18:15:32.356Z,2.03
2023-07-14T18:19:34.506Z,2.00
2023-07-14T18:23:37.325Z,2.33
2023-07-14T18:27:39.147Z,1.40
2023-07-14T18:31:49.957Z,2.25
2023-07-14T18:35:56.609Z,3.10
2023-07-14T18:39:58.675Z,1.80
2023-07-14T18:44:00.911Z,1.35
2023-07-14T18:48:25.531Z,1.45
2023-07-14T18:52:27.815Z,1.98
2023-07-14T18:56:29.679Z,2.35
2023-07-14T19:00:31.647Z,1.40
2023-07-14T19:04:33.904Z,3.08
2023-07-14T19:08:35.757Z,3.75
2023-07-14T19:12:38.043Z,1.95
2023-07-14T19:16:40.650Z,1.63
2023-07-14T19:20:42.543Z,2.00
2023-07-14T19:24:46.536Z,2.67
2023-07-14T19:28:48.499Z,2.58
2023-07-14T19:32:54.735Z,1.63
2023-07-14T19:36:57.288Z,1.98
2023-07-14T19:41:00.270Z,2.17
2023-07-14T19:45:02.572Z,2.53
2023-07-14T19:49:04.939Z,2.33
2023-07-14T19:53:30.787Z,1.90
2023-07-14T19:57:32.601Z,2.13
2023-07-14T20:01:35.262Z,3.03
2023-07-14T20:05:39.041Z,5.93
2023-07-14T20:09:42.639Z,1.63
2023-07-14T20:13:45.203Z,2.45
2023-07-14T20:17:48.244Z,1.58
2023-07-14T20:21:50.136Z,1.58
2023-07-14T20:25:55.121Z,1.58
2023-07-14T20:29:56.912Z,2.25
2023-07-14T20:34:49.150Z,1.98
2023-07-14T20:38:52.226Z,1.75
2023-07-14T20:42:54.762Z,4.50
2023-07-14T20:46:56.992Z,2.30
2023-07-14T20:50:58.885Z,1.70
2023-07-14T20:55:01.194Z,2.58
2023-07-14T20:59:02.993Z,2.55
2023-07-14T21:03:24.589Z,3.22
2023-07-14T21:07:27.217Z,5.38
2023-07-14T21:11:29.536Z,2.58
2023-07-14T21:15:31.713Z,1.95
2023-07-14T21:19:33.470Z,1.38
2023-07-14T21:23:37.223Z,2.58
2023-07-14T21:27:39.497Z,2.35
2023-07-14T21:31:43.471Z,3.40
2023-07-14T21:35:46.390Z,1.67
2023-07-14T21:39:48.740Z,2.45
2023-07-14T21:43:51.768Z,2.10
2023-07-14T21:47:54.154Z,1.67
2023-07-14T21:51:57.726Z,2.15
2023-07-14T21:56:01.174Z,1.65
2023-07-14T22:00:03.195Z,1.88
2023-07-14T22:04:30.068Z,2.20
2023-07-14T22:08:32.191Z,1.90
2023-07-14T22:12:34.333Z,3.20
2023-07-14T22:16:36.989Z,2.40
2023-07-14T22:20:39.768Z,3.53
2023-07-14T22:24:41.736Z,2.13
2023-07-14T22:28:44.324Z,3.03
2023-07-14T22:32:47.108Z,3.00
2023-07-14T22:36:49.152Z,4.25
2023-07-14T22:40:51.514Z,2.55
2023-07-14T22:44:53.832Z,2.38
2023-07-14T22:48:55.676Z,2.05
2023-07-14T22:52:57.910Z,2.15
2023-07-14T22:57:01.250Z,2.58
2023-07-14T23:01:12.633Z,3.10
2023-07-14T23:05:17.428Z,1.85
2023-07-14T23:09:19.588Z,5.40
2023-07-14T23:13:27.679Z,2.72
2023-07-14T23:17:30.899Z,3.33
2023-07-14T23:21:34.428Z,1.70
2023-07-14T23:25:36.937Z,2.58
2023-07-14T23:29:38.879Z,2.83
2023-07-14T23:33:40.770Z,2.30
2023-07-14T23:37:44.286Z,2.33
2023-07-14T23:41:47.192Z,2.45
2023-07-14T23:45:51.319Z,2.60
2023-07-14T23:49:53.287Z,3.70
2023-07-14T23:53:55.577Z,2.60
2023-07-14T23:57:58.779Z,2.30
